Time;durP1;ratioP1;P1;durP2;ratioP2;P2;SDS_P1;SDS_P2;PMS_P1;PMS_P2;Temp;Humidity;BMP_temperature;BMP_pressure;BME280_temperature;BME280_humidity;BME280_pressure;Samples;Min_cycle;Max_cycle;Signal;HPM_P1;HPM_P2
2022/07/21 00:01:32;;;;;;;15.80;8.70;;;;;;;18.70;98.91;157218.88;5049941;28;20033;-73
2022/07/21 00:03:58;;;;;;;13.52;8.73;;;;;;;18.62;100.00;157198.28;5032809;28;20043;-74
2022/07/21 00:06:23;;;;;;;18.55;9.57;;;;;;;18.46;100.00;157159.59;5035185;28;20040;-73
2022/07/21 00:08:49;;;;;;;17.85;8.57;;;;;;;18.48;100.00;157164.75;5065684;28;20032;-74
2022/07/21 00:11:15;;;;;;;14.40;8.63;;;;;;;18.38;100.00;157137.69;5056290;28;20072;-74
2022/07/21 00:13:40;;;;;;;18.25;8.52;;;;;;;18.29;100.00;157117.06;5057922;28;20493;-74
2022/07/21 00:16:06;;;;;;;13.50;8.32;;;;;;;18.28;100.00;157113.19;5048224;28;20064;-74
2022/07/21 00:18:32;;;;;;;13.05;8.45;;;;;;;18.31;100.00;157119.63;5058542;28;20033;-76
2022/07/21 00:20:58;;;;;;;12.52;8.07;;;;;;;18.46;100.00;157159.59;5041212;28;20037;-75
2022/07/21 00:23:24;;;;;;;18.73;9.20;;;;;;;18.36;100.00;157132.53;5054069;28;20115;-75
2022/07/21 00:25:51;;;;;;;19.27;9.00;;;;;;;18.33;100.00;157124.78;5055142;28;20544;-75
2022/07/21 00:28:17;;;;;;;14.00;8.35;;;;;;;18.26;100.00;157108.03;5036374;28;20140;-74
2022/07/21 00:30:43;;;;;;;19.58;8.70;;;;;;;18.39;100.00;157140.28;5059880;28;20036;-75
2022/07/21 00:33:09;;;;;;;14.65;8.85;;;;;;;18.56;99.68;157184.09;5064163;28;20047;-74
2022/07/21 00:35:35;;;;;;;14.80;8.82;;;;;;;18.61;99.92;157195.66;5051966;28;20024;-74
2022/07/21 00:38:00;;;;;;;12.73;8.20;;;;;;;18.46;100.00;157159.59;5026404;28;20071;-75
2022/07/21 00:40:27;;;;;;;19.73;9.38;;;;;;;18.38;100.00;157137.69;5049633;28;20757;-73
2022/07/21 00:42:53;;;;;;;13.40;8.45;;;;;;;18.55;100.00;157180.22;5054027;28;20047;-73
2022/07/21 00:45:19;;;;;;;15.68;8.38;;;;;;;18.40;100.00;157144.16;5046865;28;20032;-73
2022/07/21 00:47:45;;;;;;;15.13;8.88;;;;;;;18.30;100.00;157118.34;5023831;28;20297;-73
2022/07/21 00:50:13;;;;;;;15.93;8.88;;;;;;;18.32;100.00;157123.50;5045395;28;20078;-74
2022/07/21 00:52:39;;;;;;;17.27;9.20;;;;;;;18.24;100.00;157102.91;5050617;28;20417;-74
2022/07/21 00:55:06;;;;;;;19.05;9.25;;;;;;;18.21;100.00;157095.13;5057247;28;20087;-73
2022/07/21 00:57:32;;;;;;;15.27;8.55;;;;;;;18.34;100.00;157127.38;5042015;28;20049;-73
2022/07/21 00:59:58;;;;;;;18.80;9.23;;;;;;;18.28;100.00;157114.47;5058230;28;20032;-73
2022/07/21 01:02:26;;;;;;;17.60;8.95;;;;;;;18.17;100.00;157084.84;5037571;28;20028;-72
2022/07/21 01:04:52;;;;;;;22.27;9.45;;;;;;;18.13;100.00;157075.81;5023997;28;20371;-73
2022/07/21 01:07:19;;;;;;;20.52;9.85;;;;;;;18.05;100.00;157056.50;5038846;28;20490;-73
2022/07/21 01:09:45;;;;;;;23.98;10.27;;;;;;;18.12;100.00;157073.25;5043073;28;20051;-74
2022/07/21 01:12:11;;;;;;;16.77;8.70;;;;;;;18.19;100.00;157091.28;5052724;28;20119;-74
2022/07/21 01:14:40;;;;;;;17.45;9.07;;;;;;;18.09;100.00;157065.50;5057926;28;20020;-73
2022/07/21 01:17:05;;;;;;;17.08;9.27;;;;;;;18.07;100.00;157060.38;5046262;28;20045;-73
2022/07/21 01:19:31;;;;;;;21.65;9.43;;;;;;;18.10;100.00;157068.06;5056341;28;20405;-73
2022/07/21 01:21:57;;;;;;;18.10;9.63;;;;;;;18.09;100.00;157065.50;5054113;28;20032;-73
2022/07/21 01:24:22;;;;;;;15.68;9.60;;;;;;;18.01;100.00;157046.19;5061746;28;20557;-73
2022/07/21 01:26:51;;;;;;;15.23;8.98;;;;;;;18.09;100.00;157065.50;5022861;28;20033;-75
2022/07/21 01:29:19;;;;;;;16.50;9.10;;;;;;;18.14;100.00;157078.41;5053010;28;20831;-74
2022/07/21 01:31:47;;;;;;;16.92;9.50;;;;;;;18.20;100.00;157092.59;5052345;28;20121;-73
2022/07/21 01:34:13;;;;;;;17.95;9.05;;;;;;;18.31;100.00;157119.63;5036338;28;20029;-73
2022/07/21 01:36:39;;;;;;;15.27;9.18;;;;;;;18.41;100.00;157145.44;5055052;28;20064;-74
2022/07/21 01:41:50;;;;;;;16.45;8.82;;;;;;;18.46;100.00;157158.31;5054806;28;20037;-74
2022/07/21 01:44:16;;;;;;;14.23;8.18;;;;;;;18.22;100.00;157099.03;5056118;28;20040;-74
2022/07/21 01:46:47;;;;;;;14.77;8.25;;;;;;;18.00;100.00;157042.31;5025248;28;20037;-74
2022/07/21 01:49:15;;;;;;;18.50;8.73;;;;;;;17.96;100.00;157033.28;5051795;28;20102;-74
2022/07/21 01:51:41;;;;;;;18.48;10.13;;;;;;;18.01;100.00;157046.19;5039833;28;20052;-75
2022/07/21 01:54:07;;;;;;;21.25;10.25;;;;;;;18.02;100.00;157048.75;5052573;28;20129;-74
2022/07/21 01:56:34;;;;;;;18.90;10.45;;;;;;;17.90;100.00;157019.13;5056916;28;20037;-74
2022/07/21 01:59:00;;;;;;;22.15;10.45;;;;;;;17.94;100.00;157026.88;5050040;28;20090;-73
2022/07/21 02:01:28;;;;;;;18.83;10.23;;;;;;;18.05;100.00;157056.50;5028979;28;20045;-74
2022/07/21 02:03:59;;;;;;;22.92;11.07;;;;;;;18.02;100.00;157048.75;5039057;28;20039;-73
2022/07/21 02:06:26;;;;;;;18.20;10.68;;;;;;;18.02;100.00;157048.75;5050858;28;20056;-75
2022/07/21 02:08:52;;;;;;;18.90;10.95;;;;;;;17.99;100.00;157041.03;5060775;28;20056;-73
2022/07/21 02:11:17;;;;;;;20.67;11.00;;;;;;;17.94;100.00;157026.88;5058096;28;20082;-74
2022/07/21 02:13:44;;;;;;;25.00;12.02;;;;;;;17.93;100.00;157024.25;5056718;28;20037;-73
2022/07/21 02:16:11;;;;;;;22.73;12.63;;;;;;;17.95;100.00;157029.41;5055793;28;20047;-74
2022/07/21 02:18:37;;;;;;;26.67;13.15;;;;;;;18.06;100.00;157059.09;5061278;28;20036;-74
2022/07/21 02:21:04;;;;;;;24.60;12.93;;;;;;;18.00;100.00;157043.59;5045599;28;20048;-72
2022/07/21 02:23:30;;;;;;;28.42;12.10;;;;;;;17.95;100.00;157030.75;5051113;28;20461;-73
2022/07/21 02:25:56;;;;;;;22.60;12.30;;;;;;;17.94;100.00;157028.13;5064342;28;20674;-73
2022/07/21 02:28:23;;;;;;;22.98;11.98;;;;;;;17.84;100.00;157003.66;5069206;28;20061;-74
2022/07/21 02:30:49;;;;;;;26.67;14.07;;;;;;;17.84;100.00;157003.66;5060542;28;20056;-74
2022/07/21 02:33:17;;;;;;;24.65;12.45;;;;;;;17.68;100.00;156963.63;5045120;28;20039;-73
2022/07/21 02:35:43;;;;;;;29.88;13.18;;;;;;;17.75;100.00;156980.41;5064713;28;20032;-73
2022/07/21 02:38:09;;;;;;;27.55;13.18;;;;;;;17.83;100.00;157001.00;5061003;28;20047;-74
2022/07/21 02:40:36;;;;;;;31.00;13.95;;;;;;;17.90;100.00;157017.84;5041700;28;20045;-73
2022/07/21 02:43:02;;;;;;;30.73;14.18;;;;;;;17.95;100.00;157029.41;5057530;28;20077;-72
2022/07/21 02:45:28;;;;;;;24.83;13.07;;;;;;;17.91;100.00;157020.38;5057908;28;20037;-71
2022/07/21 02:48:01;;;;;;;26.70;13.60;;;;;;;17.92;100.00;157021.72;5052552;28;20078;-74
2022/07/21 02:50:30;;;;;;;29.35;12.63;;;;;;;17.90;100.00;157019.13;5057239;28;20573;-74
2022/07/21 02:52:57;;;;;;;29.15;12.88;;;;;;;17.93;100.00;157024.25;5055620;28;20036;-74
2022/07/21 02:55:25;;;;;;;31.45;14.43;;;;;;;17.91;100.00;157020.38;5057542;28;20036;-74
2022/07/21 02:58:12;;;;;;;27.10;13.77;;;;;;;17.82;100.00;156998.47;5042538;28;20028;-74
2022/07/21 03:00:40;;;;;;;23.52;12.15;;;;;;;17.77;100.00;156985.56;5051933;28;20095;-75
2022/07/21 03:03:06;;;;;;;27.77;13.25;;;;;;;17.74;100.00;156976.53;5056768;28;20047;-74
2022/07/21 03:05:33;;;;;;;26.48;13.52;;;;;;;17.79;100.00;156989.44;5055612;28;20079;-74
2022/07/21 03:07:59;;;;;;;28.45;13.52;;;;;;;17.71;100.00;156970.13;5059051;28;20048;-75
2022/07/21 03:10:24;;;;;;;26.13;11.98;;;;;;;17.67;100.00;156961.09;5056650;28;20033;-75
2022/07/21 03:12:50;;;;;;;26.38;12.38;;;;;;;17.65;100.00;156955.94;5056402;28;20035;-75
2022/07/21 03:15:16;;;;;;;26.13;12.32;;;;;;;17.62;100.00;156946.91;5034503;28;20053;-73
2022/07/21 03:17:42;;;;;;;29.02;11.88;;;;;;;17.68;100.00;156963.63;5049600;28;20029;-74
2022/07/21 03:20:08;;;;;;;21.38;11.35;;;;;;;17.66;100.00;156958.50;5040404;28;20047;-74
2022/07/21 03:22:33;;;;;;;22.48;10.55;;;;;;;17.61;100.00;156945.66;5060148;28;20401;-75
2022/07/21 03:24:59;;;;;;;23.67;10.73;;;;;;;17.66;100.00;156958.50;5047011;28;20035;-75
2022/07/21 03:27:25;;;;;;;18.77;11.13;;;;;;;17.58;100.00;156937.91;5057716;28;20048;-74
2022/07/21 03:29:51;;;;;;;19.30;10.32;;;;;;;17.62;100.00;156946.91;5051555;28;20033;-74
2022/07/21 03:32:16;;;;;;;24.20;10.30;;;;;;;17.55;100.00;156930.16;5054061;28;20033;-73
2022/07/21 03:34:44;;;;;;;22.63;10.40;;;;;;;17.58;100.00;156937.91;5028826;28;20136;-75
2022/07/21 03:37:10;;;;;;;19.95;10.13;;;;;;;17.65;100.00;156954.63;5037702;28;20064;-75
2022/07/21 03:39:36;;;;;;;24.95;10.43;;;;;;;17.66;100.00;156957.22;5048680;28;20045;-74
2022/07/21 03:42:02;;;;;;;17.75;9.60;;;;;;;17.70;100.00;156968.78;5020419;28;20114;-75
2022/07/21 03:44:28;;;;;;;18.92;9.65;;;;;;;17.79;100.00;156990.72;5061352;28;20486;-74
2022/07/21 03:46:53;;;;;;;20.83;8.40;;;;;;;17.84;100.00;157002.34;5042744;28;20129;-74
2022/07/21 03:49:19;;;;;;;19.52;9.18;;;;;;;17.89;100.00;157016.56;5055063;28;20557;-75
2022/07/21 03:51:44;;;;;;;20.88;8.93;;;;;;;17.97;100.00;157035.88;5047677;28;20033;-74
2022/07/21 03:54:10;;;;;;;20.13;8.25;;;;;;;17.97;100.00;157034.56;5052388;28;20041;-75
2022/07/21 03:56:36;;;;;;;21.95;8.10;;;;;;;18.04;100.00;157053.88;5038582;28;20044;-75
2022/07/21 03:59:02;;;;;;;42.50;8.80;;;;;;;18.12;100.00;157071.94;5058831;28;20082;-75
2022/07/21 04:01:27;;;;;;;19.50;7.70;;;;;;;18.12;100.00;157071.94;5024939;28;20037;-74
2022/07/21 04:03:53;;;;;;;22.50;7.40;;;;;;;18.13;100.00;157075.81;5055465;28;20139;-75
2022/07/21 04:06:19;;;;;;;23.80;7.63;;;;;;;18.12;100.00;157073.25;5045870;28;20487;-75
2022/07/21 04:08:44;;;;;;;17.92;7.68;;;;;;;18.06;100.00;157057.75;5038013;28;20115;-75
2022/07/21 04:11:10;;;;;;;17.88;7.57;;;;;;;18.18;100.00;157088.72;5052409;28;20116;-74
2022/07/21 04:13:36;;;;;;;16.35;7.25;;;;;;;18.20;100.00;157093.88;5041688;28;20048;-75
2022/07/21 04:16:01;;;;;;;19.35;7.38;;;;;;;18.36;100.00;157132.53;5036844;28;20529;-74
2022/07/21 04:18:27;;;;;;;17.48;6.28;;;;;;;18.43;100.00;157151.84;5042680;28;20040;-74
2022/07/21 04:20:52;;;;;;;20.25;7.45;;;;;;;18.56;100.00;157184.09;5046640;28;20041;-74
2022/07/21 04:23:18;;;;;;;21.40;6.80;;;;;;;18.69;100.00;157216.31;5053755;28;20037;-74
2022/07/21 04:25:44;;;;;;;16.17;6.72;;;;;;;18.66;100.00;157209.84;5054011;28;20059;-76
2022/07/21 04:28:11;;;;;;;17.95;6.43;;;;;;;18.77;100.00;157235.66;5040306;28;20145;-73
2022/07/21 04:30:37;;;;;;;17.70;6.25;;;;;;;18.78;100.00;157239.53;5043758;28;20063;-74
2022/07/21 04:33:03;;;;;;;20.83;7.32;;;;;;;18.82;100.00;157248.63;5039415;28;20037;-73
2022/07/21 04:35:29;;;;;;;19.80;6.57;;;;;;;18.88;100.00;157264.06;5053051;28;20029;-73
2022/07/21 04:37:54;;;;;;;20.40;7.00;;;;;;;18.92;100.00;157273.09;5059277;28;20036;-73
2022/07/21 04:40:20;;;;;;;17.75;6.88;;;;;;;18.88;100.00;157264.06;5055487;28;20032;-73
2022/07/21 04:42:46;;;;;;;20.25;6.63;;;;;;;18.84;100.00;157253.75;5035989;28;20052;-73
2022/07/21 04:45:13;;;;;;;16.23;6.50;;;;;;;18.88;100.00;157262.78;5049514;28;20037;-75
2022/07/21 04:47:44;;;;;;;16.23;5.95;;;;;;;18.98;100.00;157288.56;5034200;28;20033;-73
2022/07/21 04:50:11;;;;;;;17.23;6.07;;;;;;;18.94;100.00;157278.25;5038922;28;20460;-73
2022/07/21 04:52:36;;;;;;;20.75;6.72;;;;;;;18.94;100.00;157279.53;5043752;28;20085;-73
2022/07/21 04:55:03;;;;;;;20.65;6.28;;;;;;;18.94;100.00;157278.25;5023267;28;20045;-73
2022/07/21 04:57:28;;;;;;;24.55;6.53;;;;;;;18.95;100.00;157282.13;5049590;28;20041;-74
2022/07/21 04:59:54;;;;;;;20.90;5.85;;;;;;;19.01;100.00;157296.31;5034816;28;20039;-74
2022/07/21 05:02:19;;;;;;;16.88;6.15;;;;;;;18.97;100.00;157287.28;5045418;28;20048;-74
2022/07/21 05:04:45;;;;;;;24.52;6.15;;;;;;;19.09;100.00;157316.94;5033415;28;20033;-74
2022/07/21 05:07:11;;;;;;;22.65;6.10;;;;;;;19.11;100.00;157320.81;5054587;28;20440;-75
2022/07/21 05:09:38;;;;;;;17.10;5.70;;;;;;;19.17;100.00;157336.25;5034106;28;20090;-75
2022/07/21 05:12:04;;;;;;;20.50;5.20;;;;;;;19.17;100.00;157337.53;5048900;28;20087;-74
2022/07/21 05:14:30;;;;;;;17.38;5.50;;;;;;;19.17;100.00;157336.25;5041021;28;20029;-74
2022/07/21 05:16:55;;;;;;;19.88;5.50;;;;;;;19.19;100.00;157341.41;5039143;28;20045;-74
2022/07/21 05:19:21;;;;;;;20.48;4.88;;;;;;;19.18;100.00;157338.88;5051411;28;20394;-75
2022/07/21 05:21:46;;;;;;;13.93;5.00;;;;;;;19.18;100.00;157340.16;5048439;28;20033;-74
2022/07/21 05:24:12;;;;;;;16.10;5.32;;;;;;;19.20;100.00;157345.28;5036073;28;20048;-74
2022/07/21 05:26:38;;;;;;;17.65;5.30;;;;;;;19.13;100.00;157325.97;5024196;28;20037;-74
2022/07/21 05:29:04;;;;;;;15.40;4.97;;;;;;;19.09;100.00;157315.66;5039348;28;20132;-74
2022/07/21 05:31:29;;;;;;;14.68;4.53;;;;;;;19.10;100.00;157319.53;5056572;28;20401;-74
2022/07/21 05:33:55;;;;;;;17.88;4.60;;;;;;;19.07;100.00;157311.78;5053712;28;20043;-73
2022/07/21 05:36:21;;;;;;;15.15;4.85;;;;;;;19.03;100.00;157302.75;5052689;28;20616;-74
2022/07/21 05:38:47;;;;;;;15.07;4.93;;;;;;;19.08;100.00;157314.38;5056031;28;20025;-74
2022/07/21 05:41:15;;;;;;;12.65;4.40;;;;;;;18.94;100.00;157279.53;5059348;28;20040;-73
2022/07/21 05:43:40;;;;;;;16.17;4.88;;;;;;;18.96;100.00;157283.41;5055570;28;20048;-75
2022/07/21 05:46:06;;;;;;;9.13;4.40;;;;;;;19.05;100.00;157307.91;5024254;28;20036;-74
2022/07/21 05:48:32;;;;;;;21.20;5.63;;;;;;;19.12;100.00;157324.69;5025139;28;20040;-73
2022/07/21 05:50:57;;;;;;;19.33;4.82;;;;;;;19.04;100.00;157305.34;5038936;28;20032;-75
2022/07/21 05:53:23;;;;;;;20.85;5.40;;;;;;;18.97;100.00;157286.00;5052667;28;20032;-73
2022/07/21 05:55:49;;;;;;;13.65;4.85;;;;;;;18.91;100.00;157270.50;5034254;28;20457;-73
2022/07/21 05:58:15;;;;;;;20.88;6.07;;;;;;;18.79;100.00;157242.09;5036071;28;20037;-73
2022/07/21 06:00:41;;;;;;;15.20;5.55;;;;;;;18.83;100.00;157251.16;5059105;28;20038;-75
2022/07/21 06:03:07;;;;;;;14.88;5.50;;;;;;;18.73;100.00;157225.34;5057815;28;20028;-73
2022/07/21 06:05:35;;;;;;;14.85;5.38;;;;;;;18.72;100.00;157224.03;5054750;28;20043;-74
2022/07/21 06:08:01;;;;;;;12.73;5.03;;;;;;;18.58;100.00;157189.25;5032304;28;20037;-75
2022/07/21 06:10:27;;;;;;;20.35;5.18;;;;;;;18.52;100.00;157172.50;5029919;28;20036;-76
2022/07/21 06:12:52;;;;;;;12.90;5.55;;;;;;;18.42;100.00;157149.31;5021534;28;20037;-74
2022/07/21 06:15:20;;;;;;;16.23;5.43;;;;;;;18.43;100.00;157151.84;5054257;28;20113;-74
2022/07/21 06:17:47;;;;;;;16.30;5.47;;;;;;;18.41;100.00;157145.44;5051971;28;20044;-74
2022/07/21 06:20:13;;;;;;;13.15;5.20;;;;;;;18.41;100.00;157146.69;5023816;28;20036;-75
2022/07/21 06:22:39;;;;;;;13.73;5.07;;;;;;;18.37;100.00;157135.13;5049804;28;20028;-75
2022/07/21 06:25:05;;;;;;;15.10;6.25;;;;;;;18.33;100.00;157126.09;5060834;28;20033;-75
2022/07/21 06:27:31;;;;;;;11.95;5.32;;;;;;;18.32;100.00;157122.22;5056043;28;20494;-75
2022/07/21 06:29:58;;;;;;;17.70;6.18;;;;;;;18.33;100.00;157124.78;5054278;28;20036;-75
2022/07/21 06:32:25;;;;;;;18.00;6.65;;;;;;;18.50;100.00;157168.63;5055425;28;20107;-75
2022/07/21 06:34:51;;;;;;;16.27;6.97;;;;;;;18.55;100.00;157180.22;5025091;28;20047;-75
2022/07/21 06:37:17;;;;;;;20.77;8.15;;;;;;;18.60;100.00;157193.13;5052927;28;20039;-73
2022/07/21 06:39:42;;;;;;;21.33;7.85;;;;;;;18.60;100.00;157194.38;5046745;28;20045;-77
2022/07/21 06:42:09;;;;;;;24.83;7.78;;;;;;;18.50;100.00;157168.63;5019801;28;20585;-74
2022/07/21 06:44:35;;;;;;;19.25;8.30;;;;;;;18.49;100.00;157166.03;5050321;28;20044;-76
2022/07/21 07:20:06;;;;;;;25.98;11.07;;;;;;;18.54;100.00;157178.94;5044915;28;20553;-73
2022/07/21 07:22:32;;;;;;;18.70;9.90;;;;;;;18.53;100.00;157175.06;5035688;28;20052;-75
2022/07/21 07:24:58;;;;;;;24.25;10.75;;;;;;;18.58;100.00;157187.97;5032431;28;20051;-76
2022/07/21 07:27:24;;;;;;;23.13;11.88;;;;;;;18.59;100.00;157191.84;5051890;28;20066;-74
2022/07/21 07:29:49;;;;;;;30.35;11.75;;;;;;;18.64;100.00;157204.69;5029969;28;20131;-74
2022/07/21 07:32:15;;;;;;;20.80;10.57;;;;;;;18.59;100.00;157190.53;5021000;28;20223;-74
2022/07/21 07:34:41;;;;;;;21.40;9.68;;;;;;;18.58;100.00;157187.97;5059761;28;20033;-75
2022/07/21 07:37:07;;;;;;;19.50;9.07;;;;;;;18.59;100.00;157190.53;5049453;28;20040;-75
2022/07/21 07:39:32;;;;;;;23.88;11.23;;;;;;;18.65;100.00;157207.28;5022983;28;20402;-75
2022/07/21 07:41:58;;;;;;;23.05;10.82;;;;;;;18.62;100.00;157198.28;5044910;28;20038;-76
2022/07/21 07:44:24;;;;;;;18.73;10.40;;;;;;;18.68;100.00;157215.06;5050096;28;20481;-73
2022/07/21 07:46:49;;;;;;;19.25;11.02;;;;;;;18.74;100.00;157227.91;5060587;28;20039;-74
2022/07/21 07:49:15;;;;;;;21.10;11.50;;;;;;;18.86;100.00;157258.91;5055090;28;20120;-75
2022/07/21 07:51:40;;;;;;;23.83;12.10;;;;;;;18.95;100.00;157282.13;5033153;28;20063;-75
2022/07/21 07:54:06;;;;;;;22.85;11.10;;;;;;;19.02;100.00;157298.88;5047200;28;20055;-75
2022/07/21 07:56:32;;;;;;;19.88;12.20;;;;;;;19.04;100.00;157305.34;5040200;28;20028;-75
2022/07/21 07:58:58;;;;;;;27.80;12.70;;;;;;;19.11;100.00;157322.09;5028154;28;20064;-75
2022/07/21 08:01:23;;;;;;;19.95;11.20;;;;;;;19.28;100.00;157363.34;5040287;28;20641;-75
2022/07/21 08:03:49;;;;;;;24.42;12.68;;;;;;;19.40;100.00;157394.28;5059959;28;20482;-76
2022/07/21 08:06:15;;;;;;;25.33;13.80;;;;;;;19.43;100.00;157402.03;5059210;28;20150;-74
2022/07/21 08:08:41;;;;;;;23.90;12.45;;;;;;;19.45;100.00;157407.19;5055120;28;20535;-74
2022/07/21 08:11:06;;;;;;;28.33;14.23;;;;;;;19.53;100.00;157426.53;5056477;28;20068;-74
2022/07/21 08:13:32;;;;;;;29.45;14.02;;;;;;;19.59;100.00;157442.00;5057343;28;20058;-74
2022/07/21 08:15:58;;;;;;;22.30;12.10;;;;;;;19.72;100.00;157474.25;5041141;28;20040;-74
2022/07/21 08:18:23;;;;;;;27.05;13.93;;;;;;;19.86;100.00;157509.16;5048362;28;20037;-74
2022/07/21 08:20:49;;;;;;;27.23;14.25;;;;;;;19.96;100.00;157536.22;5043664;28;20393;-74
2022/07/21 08:23:15;;;;;;;19.67;12.95;;;;;;;20.12;100.00;157576.25;5041151;28;20048;-73
2022/07/21 08:25:42;;;;;;;27.17;14.77;;;;;;;20.23;100.00;157603.34;5041011;28;20120;-74
2022/07/21 08:28:08;;;;;;;28.42;12.90;;;;;;;20.57;100.00;157688.50;5023397;28;20040;-74
2022/07/21 08:30:34;;;;;;;22.92;14.07;;;;;;;20.67;100.00;157714.34;5054478;28;20029;-74
2022/07/21 08:33:00;;;;;;;21.73;12.80;;;;;;;20.73;100.00;157729.81;5056400;28;20044;-74
2022/07/21 08:35:27;;;;;;;30.13;14.27;;;;;;;20.69;100.00;157719.50;5039492;28;20108;-77
2022/07/21 08:37:59;;;;;;;22.85;13.73;;;;;;;20.59;100.00;157693.66;5021011;28;20119;-75
2022/07/21 08:40:26;;;;;;;26.60;14.88;;;;;;;20.57;100.00;157688.50;5051808;28;20036;-75
2022/07/21 08:42:53;;;;;;;24.75;13.75;;;;;;;20.54;100.00;157680.75;5025761;28;20119;-75
2022/07/21 08:45:19;;;;;;;23.63;15.20;;;;;;;20.56;100.00;157685.91;5044845;28;20051;-73
2022/07/21 08:47:45;;;;;;;25.50;13.15;;;;;;;20.69;100.00;157719.50;5028005;28;20040;-75
2022/07/21 08:50:11;;;;;;;25.80;14.63;;;;;;;20.89;100.00;157769.84;5024443;28;20481;-75
2022/07/21 08:52:37;;;;;;;22.90;15.38;;;;;;;20.95;100.00;157785.34;5026189;28;20040;-75
2022/07/21 08:55:03;;;;;;;26.55;15.00;;;;;;;20.92;100.00;157776.28;5038760;28;20402;-74
2022/07/21 08:57:29;;;;;;;26.42;14.65;;;;;;;20.89;100.00;157769.84;5059045;28;20081;-75
2022/07/21 08:59:55;;;;;;;25.55;14.75;;;;;;;20.94;100.00;157781.44;5042322;28;20036;-74
2022/07/21 09:02:28;;;;;;;25.73;16.05;;;;;;;20.84;100.00;157755.66;5052218;28;20033;-74
2022/07/21 09:04:54;;;;;;;30.23;16.00;;;;;;;20.86;100.00;157760.81;5029149;28;20036;-75
2022/07/21 09:07:22;;;;;;;26.45;16.08;;;;;;;20.87;100.00;157763.38;5038331;28;20040;-76
2022/07/21 09:10:02;;;;;;;24.58;15.48;;;;;;;20.94;100.00;157781.44;5059059;28;20048;-76
2022/07/21 09:12:29;;;;;;;30.98;16.67;;;;;;;20.99;100.00;157795.66;5050329;28;20057;-77
2022/07/21 09:15:20;;;;;;;23.33;15.80;;;;;;;21.32;100.00;157878.28;5042037;28;20360;-77
2022/07/21 09:17:46;;;;;;;24.73;15.75;;;;;;;21.58;100.00;157942.88;5033037;28;20044;-77
2022/07/21 09:20:25;;;;;;;24.85;16.70;;;;;;;21.73;100.00;157980.31;5024120;28;20044;-77
2022/07/21 09:23:12;;;;;;;23.17;15.20;;;;;;;21.94;100.00;158034.56;5057439;28;20051;-76
2022/07/21 09:25:44;;;;;;;20.77;15.15;;;;;;;21.97;100.00;158041.00;5049639;28;20033;-74
2022/07/21 09:28:23;;;;;;;18.20;14.03;;;;;;;21.96;100.00;158039.75;5039481;28;20036;-75
2022/07/21 09:31:09;;;;;;;21.02;14.35;;;;;;;21.87;100.00;158015.16;5051410;28;20332;-76
2022/07/21 09:33:43;;;;;;;24.42;15.45;;;;;;;21.65;100.00;157959.66;5041401;28;20490;-76
2022/07/21 09:36:15;;;;;;;23.65;15.00;;;;;;;21.56;100.00;157938.97;5020776;28;20033;-75
2022/07/21 09:38:54;;;;;;;24.20;15.38;;;;;;;21.44;100.00;157908.03;5037138;28;20094;-75
2022/07/21 09:41:23;;;;;;;26.15;15.80;;;;;;;21.44;100.00;157908.03;5015481;28;20060;-76
2022/07/21 09:43:51;;;;;;;22.20;16.02;;;;;;;21.41;100.00;157898.94;5040193;28;20040;-75
2022/07/21 09:46:23;;;;;;;21.98;14.82;;;;;;;21.56;100.00;157938.97;5049791;28;20033;-75
2022/07/21 09:48:50;;;;;;;;;;;;;;;21.87;100.00;158015.16;5054197;28;20440;-76
2022/07/21 09:51:22;;;;;;;23.10;14.13;;;;;;;22.24;100.00;158109.44;5035101;28;20293;-76
2022/07/21 09:53:54;;;;;;;22.85;13.48;;;;;;;22.34;100.00;158135.34;5025035;28;20040;-77
2022/07/21 09:56:20;;;;;;;23.40;14.52;;;;;;;22.41;100.00;158152.13;5031864;28;20396;-76
2022/07/21 09:58:48;;;;;;;23.48;12.55;;;;;;;22.85;100.00;158261.91;5032000;28;20041;-76
2022/07/21 10:01:14;;;;;;;22.20;13.07;;;;;;;23.28;100.00;158370.50;5051704;28;20044;-75
2022/07/21 10:03:42;;;;;;;19.67;11.65;;;;;;;23.09;100.00;158324.03;5051498;28;20110;-77
2022/07/21 10:06:09;;;;;;;18.58;12.55;;;;;;;23.06;100.00;158316.25;5029459;28;20502;-76
2022/07/21 10:08:36;;;;;;;21.05;12.15;;;;;;;23.11;100.00;158327.88;5036848;28;20371;-76
2022/07/21 10:11:02;;;;;;;17.35;11.63;;;;;;;23.56;100.00;158440.31;5031834;28;20029;-74
2022/07/21 10:13:28;;;;;;;15.75;11.75;;;;;;;23.48;100.00;158420.94;5034333;28;20056;-76
2022/07/21 10:15:54;;;;;;;17.35;11.10;;;;;;;23.23;100.00;158357.63;5038155;28;20044;-75
2022/07/21 10:18:24;;;;;;;15.02;11.40;;;;;;;22.85;100.00;158263.25;5051082;28;20506;-75
2022/07/21 10:20:57;;;;;;;15.75;10.95;;;;;;;22.69;100.00;158221.88;5029274;28;20036;-77
2022/07/21 10:23:41;;;;;;;15.95;10.85;;;;;;;22.69;100.00;158223.16;5031281;28;20401;-76
2022/07/21 10:26:08;;;;;;;12.55;10.15;;;;;;;22.67;100.00;158216.72;5032969;28;20490;-75
2022/07/21 10:28:34;;;;;;;13.40;9.75;;;;;;;22.96;100.00;158289.06;5050180;28;20114;-75
2022/07/21 10:31:14;;;;;;;13.07;9.23;;;;;;;23.42;100.00;158405.44;5048417;28;20056;-76
2022/07/21 10:33:49;;;;;;;13.63;9.60;;;;;;;23.74;100.00;158485.56;5054566;28;20041;-76
2022/07/21 10:36:26;;;;;;;17.67;10.10;;;;;;;23.88;100.00;158521.78;5022976;28;20127;-76
2022/07/21 10:39:13;;;;;;;12.82;8.60;;;;;;;23.77;100.00;158494.63;5045722;28;20045;-77
2022/07/21 10:41:44;;;;;;;10.90;7.82;;;;;;;23.68;100.00;158472.63;5061239;28;20933;-75
2022/07/21 10:44:35;;;;;;;10.90;7.30;;;;;;;23.36;100.00;158389.88;5030293;28;20041;-77
2022/07/21 10:47:20;;;;;;;11.27;8.20;;;;;;;23.10;100.00;158326.59;5035463;28;20146;-78
2022/07/21 10:49:52;;;;;;;13.70;8.15;;;;;;;23.03;100.00;158307.16;5041883;28;20338;-74
2022/07/21 10:52:39;;;;;;;13.03;7.93;;;;;;;22.91;100.00;158278.72;5065463;28;20118;-75
2022/07/21 10:55:28;;;;;;;11.82;8.10;;;;;;;23.03;100.00;158308.50;5043015;28;20441;-76
2022/07/21 10:58:17;;;;;;;9.32;7.60;;;;;;;23.76;100.00;158490.75;5059607;28;20060;-75
2022/07/21 11:00:57;;;;;;;11.38;6.55;;;;;;;24.28;96.34;158623.94;5039257;28;20110;-76
2022/07/21 11:03:43;;;;;;;9.00;7.80;;;;;;;24.94;87.79;158789.50;5043887;28;20207;-75
2022/07/21 11:06:14;;;;;;;10.25;6.88;;;;;;;25.08;85.72;158824.41;5051442;28;20049;-76
2022/07/21 11:08:43;;;;;;;18.03;7.70;;;;;;;24.53;91.67;158684.75;5051473;28;20631;-75
2022/07/21 11:11:21;;;;;;;15.52;6.95;;;;;;;24.37;91.98;158645.88;5059354;28;20286;-75
2022/07/21 11:14:09;;;;;;;11.55;6.63;;;;;;;24.47;90.61;158671.78;5044199;28;20111;-74
2022/07/21 11:16:38;;;;;;;12.13;7.57;;;;;;;24.38;92.91;158648.50;5052209;28;20119;-75
2022/07/21 11:19:04;;;;;;;10.43;7.22;;;;;;;24.73;89.45;158736.44;5041284;28;20047;-74
2022/07/21 11:21:29;;;;;;;10.52;6.57;;;;;;;24.62;90.60;158708.00;5061080;28;20394;-76
2022/07/21 11:23:55;;;;;;;8.60;5.90;;;;;;;24.45;88.79;158665.31;5035108;28;20041;-74
2022/07/21 11:26:25;;;;;;;7.55;4.95;;;;;;;24.60;85.71;158702.81;5042193;28;20037;-74
2022/07/21 11:29:06;;;;;;;10.00;5.18;;;;;;;24.55;85.33;158691.22;5050357;28;20083;-74
2022/07/21 11:31:45;;;;;;;6.70;4.20;;;;;;;24.57;83.68;158695.09;5042354;28;20470;-74
2022/07/21 11:34:11;;;;;;;6.75;4.97;;;;;;;24.29;85.91;158626.50;5028139;28;20047;-74
2022/07/21 11:36:37;;;;;;;6.50;4.78;;;;;;;23.91;87.58;158529.56;5038320;28;20036;-74
2022/07/21 11:39:09;;;;;;;7.20;4.93;;;;;;;23.57;91.71;158444.19;5049906;28;20040;-74
2022/07/21 11:41:37;;;;;;;9.50;4.80;;;;;;;23.40;96.28;158401.53;5049728;28;20032;-75
2022/07/21 11:44:09;;;;;;;8.32;5.32;;;;;;;23.35;95.74;158388.59;5054404;28;20481;-75
2022/07/21 11:46:49;;;;;;;7.27;4.93;;;;;;;23.39;100.00;158398.94;5027873;28;20025;-73